Terminal Aerodrome Forecast
Issued by NWS

Home | Current Version | Previous Version | Text Only | Print | Product List | Glossary On
Versions: 1 2 3 4 5 6 7 8 9 10 11 12 13 14 15 16 17 18 19 20 21 22 23
000
FTAK31 PAJN 252321
TAFAPG
TAF
PAPG 252321Z 2600/2624 05005KT P6SM SCT050
     FM260900 VRB04KT 4SM -RA BR BKN050
     FM261300 VRB03KT 1/2SM -RA FG VV004
     FM261700 24003KT 2SM -RA BR OVC007
     FM262100 24003KT 5SM -RA BR OVC015
      AMD LTD TO CLD VIS AND WIND 2606/2615=

USA.gov is the U.S. government's official web portal to all federal, state and local government web resources and services.